Time;durP1;ratioP1;P1;durP2;ratioP2;P2;SDS_P1;SDS_P2;PMS_P1;PMS_P2;Temp;Humidity;BMP_temperature;BMP_pressure;BME280_temperature;BME280_humidity;BME280_pressure;Samples;Min_cycle;Max_cycle;Signal;HPM_P1;HPM_P2
2022/01/14 00:01:44;;;;;;;;;;;5.00;99.90;;;;;;4900294;29;19978;-85
2022/01/14 00:04:10;;;;;;;;;;;5.10;99.90;;;;;;4900490;29;19971;-85
2022/01/14 00:06:38;;;;;;;;;;;5.10;99.90;;;;;;4900751;29;20434;-85
2022/01/14 00:09:08;;;;;;;;;;;5.10;99.90;;;;;;4900656;29;20018;-85
2022/01/14 00:11:39;;;;;;;;;;;5.00;99.90;;;;;;4916454;29;19927;-84
2022/01/14 00:14:20;;;;;;;;;;;4.90;99.90;;;;;;4919543;29;19939;-84
2022/01/14 00:16:47;;;;;;;;;;;4.90;99.90;;;;;;4919386;29;20278;-84
2022/01/14 00:19:14;;;;;;;;;;;4.90;99.90;;;;;;4919958;29;20106;-84
2022/01/14 00:21:42;;;;;;;;;;;4.80;99.90;;;;;;4919520;29;19927;-84
2022/01/14 00:24:13;;;;;;;;;;;4.80;99.90;;;;;;4919255;29;19942;-84
2022/01/14 00:32:12;;;;;;;;;;;4.70;99.90;;;;;;4919131;29;19935;-84
2022/01/14 00:34:39;;;;;;;;;;;4.70;99.90;;;;;;4919067;29;20412;-84
2022/01/14 00:37:05;;;;;;;;;;;4.30;99.90;;;;;;4918995;29;19931;-84
2022/01/14 00:39:37;;;;;;;;;;;5.00;99.90;;;;;;4918973;29;19927;-84
2022/01/14 00:42:03;;;;;;;;;;;5.10;99.90;;;;;;4919094;29;19927;-85
2022/01/14 00:44:30;;;;;;;;;;;4.90;99.90;;;;;;4918605;29;19966;-85
2022/01/14 00:46:57;;;;;;;;;;;4.80;99.90;;;;;;4918692;29;19962;-85
2022/01/14 00:49:24;;;;;;;;;;;4.70;99.90;;;;;;4918551;29;19930;-85
2022/01/14 00:51:50;;;;;;;;;;;4.70;99.90;;;;;;4918271;29;19974;-85
2022/01/14 00:54:18;;;;;;;;;;;4.60;99.90;;;;;;4918270;29;20379;-85
2022/01/14 00:57:00;;;;;;;;;;;4.60;99.90;;;;;;4918464;29;19963;-85
2022/01/14 00:59:26;;;;;;;;;;;4.50;99.90;;;;;;4918623;29;19974;-85
2022/01/14 01:01:56;;;;;;;;;;;4.60;99.90;;;;;;4918791;29;20006;-85
2022/01/14 01:04:26;;;;;;;;;;;4.50;99.90;;;;;;4918820;29;19982;-85
2022/01/14 01:06:53;;;;;;;;;;;4.50;99.90;;;;;;4917265;29;19934;-85
2022/01/14 01:09:22;;;;;;;;;;;4.40;99.90;;;;;;4907761;29;19953;-85
2022/01/14 01:11:53;;;;;;;;;;;4.60;99.90;;;;;;4899521;29;19928;-84
2022/01/14 01:14:25;;;;;;;;;;;4.40;99.90;;;;;;4899694;29;19931;-85
2022/01/14 01:16:52;;;;;;;;;;;4.20;99.90;;;;;;4899818;29;19927;-84
2022/01/14 01:19:19;;;;;;;;;;;4.30;99.90;;;;;;4899748;29;19979;-84
2022/01/14 01:21:46;;;;;;;;;;;4.30;99.90;;;;;;4899287;29;19978;-84
2022/01/14 01:24:14;;;;;;;;;;;4.30;99.90;;;;;;4899253;29;19978;-84
2022/01/14 01:26:42;;;;;;;;;;;4.30;99.90;;;;;;4899312;29;19935;-84
2022/01/14 01:29:32;;;;;;;;;;;4.20;99.90;;;;;;4899493;29;19927;-84
2022/01/14 01:31:58;;;;;;;;;;;4.20;99.90;;;;;;4899407;29;19934;-84
2022/01/14 01:34:26;;;;;;;;;;;4.20;99.90;;;;;;4899158;29;19967;-84
2022/01/14 01:36:55;;;;;;;;;;;4.00;99.90;;;;;;4898970;29;20330;-84
2022/01/14 01:39:24;;;;;;;;;;;4.20;99.90;;;;;;4899290;29;19971;-84
2022/01/14 01:41:53;;;;;;;;;;;4.20;99.90;;;;;;4899244;29;19927;-84
2022/01/14 01:44:22;;;;;;;;;;;4.20;99.90;;;;;;4899317;29;19986;-84
2022/01/14 01:46:49;;;;;;;;;;;4.20;99.90;;;;;;4898713;29;20306;-84
2022/01/14 01:49:17;;;;;;;;;;;4.20;99.90;;;;;;4899425;29;19975;-84
2022/01/14 01:51:44;;;;;;;;;;;4.10;99.90;;;;;;4898852;29;19931;-84
2022/01/14 01:54:11;;;;;;;;;;;4.20;99.90;;;;;;4898981;29;20445;-84
2022/01/14 01:56:38;;;;;;;;;;;4.20;99.90;;;;;;4898950;29;19931;-84
2022/01/14 01:59:05;;;;;;;;;;;4.20;99.90;;;;;;4899165;29;19931;-84
2022/01/14 02:01:34;;;;;;;;;;;4.20;99.90;;;;;;4898620;29;19975;-85
2022/01/14 02:04:00;;;;;;;;;;;4.20;99.90;;;;;;4899145;29;19932;-84
2022/01/14 02:06:27;;;;;;;;;;;4.20;99.90;;;;;;4898740;29;20354;-84
2022/01/14 02:08:54;;;;;;;;;;;4.60;99.90;;;;;;4898795;29;19931;-84
2022/01/14 02:11:21;;;;;;;;;;;4.30;99.90;;;;;;4898757;29;19973;-84
2022/01/14 02:13:50;;;;;;;;;;;4.20;99.90;;;;;;4898514;29;20335;-84
2022/01/14 02:16:30;;;;;;;;;;;4.30;99.90;;;;;;4898761;29;19927;-84
2022/01/14 02:19:16;;;;;;;;;;;4.20;99.90;;;;;;4899043;29;19952;-85
2022/01/14 02:24:54;;;;;;;;;;;4.30;99.90;;;;;;4898997;29;20414;-84
2022/01/14 02:27:21;;;;;;;;;;;4.30;99.90;;;;;;4899072;29;19932;-84
2022/01/14 02:29:47;;;;;;;;;;;4.30;99.90;;;;;;4898486;29;20014;-84
2022/01/14 02:32:14;;;;;;;;;;;4.30;99.90;;;;;;4898435;29;20287;-85
2022/01/14 02:34:41;;;;;;;;;;;4.40;99.90;;;;;;4898981;29;19970;-84
2022/01/14 02:37:09;;;;;;;;;;;4.50;99.90;;;;;;4898653;29;19931;-84
2022/01/14 02:39:36;;;;;;;;;;;4.60;99.90;;;;;;4898716;29;20394;-84
2022/01/14 02:42:03;;;;;;;;;;;4.60;99.90;;;;;;4898591;29;19970;-84
2022/01/14 02:44:31;;;;;;;;;;;4.60;99.90;;;;;;4898710;29;19975;-84
2022/01/14 02:47:04;;;;;;;;;;;4.50;99.90;;;;;;4898601;29;20263;-85
2022/01/14 02:49:32;;;;;;;;;;;4.60;99.90;;;;;;4899341;29;19928;-85
2022/01/14 02:52:01;;;;;;;;;;;4.50;99.90;;;;;;4901922;29;19960;-84
2022/01/14 02:54:33;;;;;;;;;;;4.30;99.90;;;;;;4901668;29;20386;-84
2022/01/14 02:57:03;;;;;;;;;;;4.70;99.90;;;;;;4901950;29;19971;-84
2022/01/14 02:59:32;;;;;;;;;;;4.30;99.90;;;;;;4901838;29;19994;-84
2022/01/14 03:02:02;;;;;;;;;;;4.30;99.90;;;;;;4901587;29;19928;-84
2022/01/14 03:04:29;;;;;;;;;;;4.30;99.90;;;;;;4901644;29;19935;-84
2022/01/14 03:06:56;;;;;;;;;;;4.20;99.90;;;;;;4901199;29;19982;-84
2022/01/14 03:09:22;;;;;;;;;;;4.20;99.90;;;;;;4901514;29;19927;-84
2022/01/14 03:11:53;;;;;;;;;;;4.20;99.90;;;;;;4901017;29;19927;-84
2022/01/14 03:14:23;;;;;;;;;;;3.60;99.90;;;;;;4901203;29;19971;-84
2022/01/14 03:16:50;;;;;;;;;;;4.20;99.90;;;;;;4900559;29;19950;-84
2022/01/14 03:19:21;;;;;;;;;;;4.10;99.90;;;;;;4901523;29;19931;-84
2022/01/14 03:21:50;;;;;;;;;;;4.10;99.90;;;;;;4901163;29;20374;-84
2022/01/14 03:24:22;;;;;;;;;;;4.20;99.90;;;;;;4901463;29;19959;-84
2022/01/14 03:26:51;;;;;;;;;;;4.10;99.90;;;;;;4901368;29;19928;-84
2022/01/14 03:29:18;;;;;;;;;;;4.10;99.90;;;;;;4901259;29;20363;-84
2022/01/14 03:31:46;;;;;;;;;;;4.10;99.90;;;;;;4901175;29;19975;-84
2022/01/14 03:34:13;;;;;;;;;;;4.10;99.90;;;;;;4900879;29;20378;-84
2022/01/14 03:36:40;;;;;;;;;;;4.10;99.90;;;;;;4900838;29;19988;-84
2022/01/14 03:39:06;;;;;;;;;;;4.10;99.90;;;;;;4901023;29;19927;-84
2022/01/14 03:41:33;;;;;;;;;;;4.10;99.90;;;;;;4900867;29;20352;-84
2022/01/14 03:44:01;;;;;;;;;;;4.10;99.90;;;;;;4901100;29;19928;-84
2022/01/14 03:46:28;;;;;;;;;;;4.10;99.90;;;;;;4900898;29;20430;-84
2022/01/14 03:48:55;;;;;;;;;;;4.20;99.90;;;;;;4900491;29;19931;-84
2022/01/14 03:51:23;;;;;;;;;;;4.10;99.90;;;;;;4900486;29;20469;-84
2022/01/14 03:53:49;;;;;;;;;;;4.10;99.90;;;;;;4900206;29;20397;-84
2022/01/14 03:56:17;;;;;;;;;;;4.10;99.90;;;;;;4900345;29;19983;-84
2022/01/14 03:58:44;;;;;;;;;;;4.10;99.90;;;;;;4900732;29;19935;-84
2022/01/14 04:01:12;;;;;;;;;;;4.20;99.90;;;;;;4900107;29;19927;-84
2022/01/14 04:03:40;;;;;;;;;;;4.20;99.90;;;;;;4900675;29;19928;-84
2022/01/14 04:06:07;;;;;;;;;;;4.10;99.90;;;;;;4900519;29;19928;-84
2022/01/14 04:08:34;;;;;;;;;;;4.10;99.90;;;;;;4900102;29;19975;-84
2022/01/14 04:11:02;;;;;;;;;;;4.10;99.90;;;;;;4900482;29;20038;-84
2022/01/14 04:13:39;;;;;;;;;;;4.10;99.90;;;;;;4900120;29;20315;-84
2022/01/14 04:16:06;;;;;;;;;;;4.10;99.90;;;;;;4900815;29;20318;-84
2022/01/14 04:18:34;;;;;;;;;;;4.00;99.90;;;;;;4900442;29;19931;-84
2022/01/14 04:21:01;;;;;;;;;;;4.00;99.90;;;;;;4900673;29;19979;-84
2022/01/14 04:23:28;;;;;;;;;;;4.00;99.90;;;;;;4900824;29;19983;-84
2022/01/14 04:25:55;;;;;;;;;;;4.10;99.90;;;;;;4900682;29;19931;-84
2022/01/14 04:28:23;;;;;;;;;;;4.00;99.90;;;;;;4900138;29;20579;-84
2022/01/14 04:30:54;;;;;;;;;;;4.40;99.90;;;;;;4900141;29;19927;-84
2022/01/14 04:33:21;;;;;;;;;;;4.00;99.90;;;;;;4898988;29;19960;-84
2022/01/14 04:35:49;;;;;;;;;;;4.00;99.90;;;;;;4900189;29;19927;-84
2022/01/14 04:38:16;;;;;;;;;;;4.00;99.90;;;;;;4900214;29;19931;-84
2022/01/14 04:40:43;;;;;;;;;;;4.00;99.90;;;;;;4899759;29;19934;-84
2022/01/14 04:43:10;;;;;;;;;;;4.00;99.90;;;;;;4900220;29;19992;-84
2022/01/14 04:45:55;;;;;;;;;;;4.40;99.90;;;;;;4900173;29;20347;-84
2022/01/14 04:48:22;;;;;;;;;;;4.00;99.90;;;;;;4900193;29;19928;-84
2022/01/14 04:50:51;;;;;;;;;;;3.90;99.90;;;;;;4899636;29;19963;-84
2022/01/14 04:53:18;;;;;;;;;;;4.00;99.90;;;;;;4899699;29;19928;-84
2022/01/14 04:55:45;;;;;;;;;;;3.90;99.90;;;;;;4899755;29;19974;-84
2022/01/14 04:58:13;;;;;;;;;;;4.00;99.90;;;;;;4899200;29;20448;-84
2022/01/14 05:00:42;;;;;;;;;;;4.10;99.90;;;;;;4899932;29;19927;-84
2022/01/14 05:03:09;;;;;;;;;;;3.90;99.90;;;;;;4899531;29;19927;-84
2022/01/14 05:05:39;;;;;;;;;;;3.80;99.90;;;;;;4899775;29;19931;-84
2022/01/14 05:08:10;;;;;;;;;;;3.90;99.90;;;;;;4913807;29;20018;-84
2022/01/14 05:10:49;;;;;;;;;;;3.90;99.90;;;;;;4918185;29;19935;-85
2022/01/14 05:13:16;;;;;;;;;;;3.90;99.90;;;;;;4917877;29;19927;-84
2022/01/14 05:15:43;;;;;;;;;;;4.00;99.90;;;;;;4918354;29;19974;-84
2022/01/14 05:18:10;;;;;;;;;;;4.00;99.90;;;;;;4918057;29;19927;-85
2022/01/14 05:20:37;;;;;;;;;;;3.90;99.90;;;;;;4918189;29;19935;-84
2022/01/14 05:23:04;;;;;;;;;;;3.90;99.90;;;;;;4907036;29;19986;-84
2022/01/14 05:25:32;;;;;;;;;;;3.90;99.90;;;;;;4899231;29;19963;-84
2022/01/14 05:27:59;;;;;;;;;;;3.90;99.90;;;;;;4899281;29;20014;-84
2022/01/14 05:30:26;;;;;;;;;;;3.90;99.90;;;;;;4898935;29;19938;-84
2022/01/14 05:32:54;;;;;;;;;;;3.90;99.90;;;;;;4898940;29;19935;-84
2022/01/14 05:35:21;;;;;;;;;;;3.80;99.90;;;;;;4898937;29;19932;-84
2022/01/14 05:37:48;;;;;;;;;;;3.80;99.90;;;;;;4898631;29;19985;-84
2022/01/14 05:40:15;;;;;;;;;;;3.80;99.90;;;;;;4898758;29;19931;-84
2022/01/14 05:42:44;;;;;;;;;;;3.80;99.90;;;;;;4898365;29;20398;-85
2022/01/14 05:45:11;;;;;;;;;;;3.80;99.90;;;;;;4898656;29;19985;-85
2022/01/14 05:47:39;;;;;;;;;;;3.80;99.90;;;;;;4898693;29;19979;-85
2022/01/14 05:50:08;;;;;;;;;;;4.00;99.90;;;;;;4898321;29;19932;-85
2022/01/14 05:52:34;;;;;;;;;;;3.80;99.90;;;;;;4898786;29;19986;-85
2022/01/14 05:55:02;;;;;;;;;;;3.80;99.90;;;;;;4897954;29;19979;-85
2022/01/14 05:57:29;;;;;;;;;;;3.90;99.90;;;;;;4898238;29;19927;-85
2022/01/14 05:59:57;;;;;;;;;;;3.90;99.90;;;;;;4898402;29;19931;-85
2022/01/14 06:02:24;;;;;;;;;;;4.00;99.90;;;;;;4897980;29;20361;-85
2022/01/14 06:04:50;;;;;;;;;;;4.00;99.90;;;;;;4898792;29;19975;-85
2022/01/14 06:07:17;;;;;;;;;;;4.10;99.90;;;;;;4898018;29;20392;-85
2022/01/14 06:09:44;;;;;;;;;;;4.10;99.90;;;;;;4898776;29;20355;-85
2022/01/14 06:12:11;;;;;;;;;;;4.00;99.90;;;;;;4898812;29;19927;-85
2022/01/14 06:14:38;;;;;;;;;;;4.00;99.90;;;;;;4898852;29;19979;-85
2022/01/14 06:17:06;;;;;;;;;;;4.00;99.90;;;;;;4899122;29;19932;-85
2022/01/14 06:19:32;;;;;;;;;;;4.00;99.90;;;;;;4898951;29;20266;-85
2022/01/14 06:21:59;;;;;;;;;;;4.00;99.90;;;;;;4898665;29;19974;-85
2022/01/14 06:24:26;;;;;;;;;;;4.00;99.90;;;;;;4892158;29;19966;-84
2022/01/14 06:26:53;;;;;;;;;;;4.00;99.90;;;;;;4902623;29;19983;-85
2022/01/14 06:29:19;;;;;;;;;;;4.10;99.90;;;;;;4902910;29;19981;-85
2022/01/14 06:31:46;;;;;;;;;;;4.00;99.90;;;;;;4902690;29;20413;-85
2022/01/14 06:34:15;;;;;;;;;;;4.00;99.90;;;;;;4902687;29;20034;-85
2022/01/14 06:36:42;;;;;;;;;;;4.00;99.90;;;;;;4902322;29;19927;-85
2022/01/14 06:39:08;;;;;;;;;;;3.90;99.90;;;;;;4902596;29;19927;-85
2022/01/14 06:41:35;;;;;;;;;;;4.10;99.90;;;;;;4902251;29;19983;-85
2022/01/14 06:44:03;;;;;;;;;;;3.80;99.90;;;;;;4902541;29;20012;-85
2022/01/14 06:46:30;;;;;;;;;;;3.70;99.90;;;;;;4902355;29;19934;-85
2022/01/14 06:48:57;;;;;;;;;;;3.80;99.90;;;;;;4901978;29;19927;-85
2022/01/14 06:51:25;;;;;;;;;;;3.90;99.90;;;;;;4902260;29;19928;-85
2022/01/14 06:53:52;;;;;;;;;;;3.90;99.90;;;;;;4902113;29;19928;-85
2022/01/14 06:56:18;;;;;;;;;;;3.90;99.90;;;;;;4902028;29;20379;-84
2022/01/14 06:58:45;;;;;;;;;;;3.90;99.90;;;;;;4902085;29;19932;-85
2022/01/14 07:01:12;;;;;;;;;;;3.80;99.90;;;;;;4902007;29;20371;-85
2022/01/14 07:03:39;;;;;;;;;;;3.80;99.90;;;;;;4902146;29;19969;-85
2022/01/14 07:06:06;;;;;;;;;;;3.80;99.90;;;;;;4902101;29;20394;-85
2022/01/14 07:08:34;;;;;;;;;;;3.80;99.90;;;;;;4901695;29;20422;-85
2022/01/14 07:11:01;;;;;;;;;;;4.00;99.90;;;;;;4901864;29;20007;-85
2022/01/14 07:13:28;;;;;;;;;;;3.90;99.90;;;;;;4901661;29;20376;-85
2022/01/14 07:15:54;;;;;;;;;;;3.80;99.90;;;;;;4901371;29;19935;-85
2022/01/14 07:18:21;;;;;;;;;;;3.70;99.90;;;;;;4901705;29;19927;-85
2022/01/14 07:20:48;;;;;;;;;;;3.80;99.90;;;;;;4901469;29;19927;-85
2022/01/14 07:23:16;;;;;;;;;;;3.30;99.90;;;;;;4900928;29;20362;-84
2022/01/14 07:25:44;;;;;;;;;;;3.90;99.90;;;;;;4901009;29;19927;-85
2022/01/14 07:28:10;;;;;;;;;;;3.90;99.90;;;;;;4901341;29;19992;-85
2022/01/14 07:30:37;;;;;;;;;;;3.70;99.90;;;;;;4900581;29;19986;-85
2022/01/14 07:33:04;;;;;;;;;;;3.80;99.90;;;;;;4904613;29;19963;-85
2022/01/14 07:35:31;;;;;;;;;;;3.70;99.90;;;;;;4900566;29;20461;-84
2022/01/14 07:37:58;;;;;;;;;;;3.70;99.90;;;;;;4907507;29;19974;-85
2022/01/14 07:40:25;;;;;;;;;;;3.60;99.90;;;;;;4919568;29;19931;-85
2022/01/14 07:42:53;;;;;;;;;;;3.50;99.90;;;;;;4900998;29;19931;-85
2022/01/14 07:45:20;;;;;;;;;;;3.40;99.90;;;;;;4901377;29;19984;-85
2022/01/14 07:47:47;;;;;;;;;;;3.60;99.90;;;;;;4901448;29;19979;-84
2022/01/14 07:50:14;;;;;;;;;;;3.30;99.90;;;;;;4900931;29;19928;-85
2022/01/14 07:52:41;;;;;;;;;;;3.30;99.90;;;;;;4901892;29;19927;-85
2022/01/14 07:55:08;;;;;;;;;;;3.70;99.90;;;;;;4900616;29;19928;-84
2022/01/14 07:57:35;;;;;;;;;;;3.30;99.90;;;;;;4884158;29;19962;-85
2022/01/14 08:00:04;;;;;;;;;;;3.20;99.90;;;;;;4901106;29;19932;-85
2022/01/14 08:02:31;;;;;;;;;;;3.30;99.90;;;;;;4901686;29;20343;-85
2022/01/14 08:05:00;;;;;;;;;;;3.80;99.90;;;;;;4901345;29;19928;-84
2022/01/14 08:07:29;;;;;;;;;;;3.20;99.90;;;;;;4901058;29;20306;-85
2022/01/14 08:09:56;;;;;;;;;;;3.30;99.90;;;;;;4901480;29;19931;-85
2022/01/14 08:12:26;;;;;;;;;;;4.00;99.90;;;;;;4902184;29;19927;-84
2022/01/14 08:14:53;;;;;;;;;;;3.30;99.90;;;;;;4900915;29;20446;-85
2022/01/14 08:17:21;;;;;;;;;;;2.90;99.90;;;;;;4901512;29;19927;-84
2022/01/14 08:19:49;;;;;;;;;;;3.40;99.90;;;;;;4900349;29;19933;-85
2022/01/14 08:22:15;;;;;;;;;;;3.50;99.90;;;;;;4900467;29;20301;-85
2022/01/14 08:24:42;;;;;;;;;;;3.50;99.90;;;;;;4900299;29;19931;-85
2022/01/14 08:27:09;;;;;;;;;;;3.50;99.90;;;;;;4900369;29;19934;-85
2022/01/14 08:29:36;;;;;;;;;;;3.50;99.90;;;;;;4900795;29;19951;-85
2022/01/14 08:32:05;;;;;;;;;;;3.50;99.90;;;;;;4900609;29;20383;-85
2022/01/14 08:34:33;;;;;;;;;;;3.50;99.90;;;;;;4900719;29;19976;-85
2022/01/14 08:37:00;;;;;;;;;;;2.60;99.90;;;;;;4900409;29;20366;-85
2022/01/14 08:39:27;;;;;;;;;;;3.80;99.90;;;;;;4899738;29;20038;-84
2022/01/14 08:41:58;;;;;;;;;;;3.30;99.90;;;;;;4899033;29;20383;-84
2022/01/14 08:44:25;;;;;;;;;;;4.10;99.90;;;;;;4900087;29;19927;-85
2022/01/14 08:46:51;;;;;;;;;;;3.50;99.90;;;;;;4898768;29;20339;-84
2022/01/14 08:49:18;;;;;;;;;;;3.60;99.90;;;;;;4899975;29;19931;-85
2022/01/14 08:51:49;;;;;;;;;;;3.50;99.90;;;;;;4892351;29;19992;-84
2022/01/14 08:54:16;;;;;;;;;;;4.20;99.90;;;;;;4869528;29;19934;-84
2022/01/14 08:56:43;;;;;;;;;;;3.50;99.90;;;;;;4884248;29;19975;-84
2022/01/14 08:59:10;;;;;;;;;;;3.40;99.90;;;;;;4895397;29;19927;-84
2022/01/14 09:01:40;;;;;;;;;;;4.40;99.90;;;;;;4891151;29;19935;-84
2022/01/14 09:04:07;;;;;;;;;;;3.40;99.90;;;;;;4895772;29;20018;-85
2022/01/14 09:06:36;;;;;;;;;;;3.50;99.90;;;;;;4872823;29;20035;-85
2022/01/14 09:09:06;;;;;;;;;;;3.50;99.90;;;;;;4877739;29;20107;-84
2022/01/14 09:11:33;;;;;;;;;;;3.20;99.90;;;;;;4884455;29;20386;-84
2022/01/14 09:14:00;;;;;;;;;;;3.50;99.90;;;;;;4894863;29;19928;-84
2022/01/14 09:16:27;;;;;;;;;;;3.80;99.90;;;;;;4896105;29;19995;-83
2022/01/14 09:18:55;;;;;;;;;;;3.50;99.90;;;;;;4897185;29;20404;-85
2022/01/14 09:21:22;;;;;;;;;;;3.40;99.90;;;;;;4888690;29;19957;-83
2022/01/14 09:23:52;;;;;;;;;;;3.40;99.90;;;;;;4892199;29;19987;-84
2022/01/14 09:26:21;;;;;;;;;;;3.40;99.90;;;;;;4892863;29;19936;-82
2022/01/14 09:28:48;;;;;;;;;;;3.60;99.90;;;;;;4887910;29;20081;-83
2022/01/14 09:31:15;;;;;;;;;;;3.60;99.90;;;;;;4893485;29;19928;-84
2022/01/14 09:33:42;;;;;;;;;;;3.70;99.90;;;;;;4879470;29;19963;-83
2022/01/14 09:36:09;;;;;;;;;;;3.80;99.90;;;;;;4892371;29;19938;-84
2022/01/14 09:38:40;;;;;;;;;;;3.80;99.90;;;;;;4895045;29;19963;-83
2022/01/14 09:41:07;;;;;;;;;;;3.70;99.90;;;;;;4894610;29;19935;-83
2022/01/14 09:43:38;;;;;;;;;;;3.60;99.90;;;;;;4889949;29;19963;-84
2022/01/14 09:46:06;;;;;;;;;;;3.60;99.90;;;;;;4893618;29;20262;-84
2022/01/14 09:48:33;;;;;;;;;;;3.80;99.90;;;;;;4889544;29;20116;-84
2022/01/14 09:51:00;;;;;;;;;;;3.90;99.90;;;;;;4879378;29;19975;-84
2022/01/14 09:53:27;;;;;;;;;;;4.30;99.90;;;;;;4891471;29;19942;-84
2022/01/14 09:55:54;;;;;;;;;;;4.10;99.90;;;;;;4889156;29;19942;-84
2022/01/14 09:58:23;;;;;;;;;;;4.10;99.90;;;;;;4892218;29;19982;-85
2022/01/14 10:00:55;;;;;;;;;;;4.10;99.90;;;;;;4885785;29;19936;-85
2022/01/14 10:03:23;;;;;;;;;;;5.00;99.90;;;;;;4885750;29;19943;-84
2022/01/14 10:05:52;;;;;;;;;;;4.70;99.90;;;;;;4895463;29;20310;-86
2022/01/14 10:08:22;;;;;;;;;;;4.20;99.90;;;;;;4898469;29;19927;-86
2022/01/14 10:10:51;;;;;;;;;;;4.30;99.90;;;;;;4891164;29;20343;-85
2022/01/14 10:13:19;;;;;;;;;;;4.30;99.90;;;;;;4890863;29;20450;-84
2022/01/14 10:15:46;;;;;;;;;;;4.70;99.90;;;;;;4859112;29;20593;-84
2022/01/14 10:18:16;;;;;;;;;;;4.60;99.90;;;;;;4864473;29;19931;-85
2022/01/14 10:20:43;;;;;;;;;;;4.70;99.90;;;;;;4899347;29;20749;-84
2022/01/14 10:23:12;;;;;;;;;;;4.00;99.90;;;;;;4882627;29;19927;-84
2022/01/14 10:25:39;;;;;;;;;;;4.70;99.90;;;;;;4897338;29;20453;-84
2022/01/14 10:28:19;;;;;;;;;;;4.30;99.90;;;;;;4897624;29;19936;-85
2022/01/14 10:30:47;;;;;;;;;;;4.50;99.90;;;;;;4893015;29;20391;-86
2022/01/14 10:33:20;;;;;;;;;;;6.20;99.90;;;;;;4896527;29;19931;-86
2022/01/14 10:35:47;;;;;;;;;;;4.50;99.90;;;;;;4896740;29;19943;-85
2022/01/14 10:38:15;;;;;;;;;;;4.50;99.90;;;;;;4895516;29;19956;-84
2022/01/14 10:40:46;;;;;;;;;;;4.70;99.90;;;;;;4895280;29;19935;-85
2022/01/14 10:43:15;;;;;;;;;;;4.90;99.90;;;;;;4897965;29;19928;-84
2022/01/14 10:45:43;;;;;;;;;;;5.80;99.90;;;;;;4888021;29;20045;-85
2022/01/14 10:48:12;;;;;;;;;;;4.70;99.90;;;;;;4894997;29;19939;-85
2022/01/14 10:50:41;;;;;;;;;;;4.70;99.90;;;;;;4896827;29;19954;-86
2022/01/14 10:53:10;;;;;;;;;;;4.90;99.90;;;;;;4895576;29;20302;-85
2022/01/14 10:55:38;;;;;;;;;;;4.80;99.90;;;;;;4898954;29;20305;-85
2022/01/14 10:58:09;;;;;;;;;;;5.10;99.90;;;;;;4900767;29;19936;-85
2022/01/14 11:00:40;;;;;;;;;;;4.80;99.90;;;;;;4900501;29;20389;-85
2022/01/14 11:03:07;;;;;;;;;;;4.70;99.90;;;;;;4898553;29;19986;-85
2022/01/14 11:05:35;;;;;;;;;;;4.90;99.90;;;;;;4880740;29;19950;-85
2022/01/14 11:08:03;;;;;;;;;;;5.00;99.90;;;;;;4896926;29;20329;-83
2022/01/14 11:10:33;;;;;;;;;;;5.00;99.90;;;;;;4895404;29;19928;-84
2022/01/14 11:13:01;;;;;;;;;;;4.80;99.90;;;;;;4895199;29;19938;-84
2022/01/14 11:15:29;;;;;;;;;;;5.20;99.90;;;;;;4892772;29;20271;-84
2022/01/14 11:18:02;;;;;;;;;;;5.40;99.90;;;;;;4893191;29;19945;-85
2022/01/14 11:20:32;;;;;;;;;;;7.50;99.90;;;;;;4892140;29;20351;-84
2022/01/14 11:23:14;;;;;;;;;;;5.50;99.90;;;;;;4894323;29;19935;-84
2022/01/14 11:25:45;;;;;;;;;;;5.50;99.90;;;;;;4895430;29;20106;-83
2022/01/14 11:28:14;;;;;;;;;;;4.70;99.90;;;;;;4894104;29;19983;-85
2022/01/14 11:30:41;;;;;;;;;;;5.90;99.90;;;;;;4893689;29;19931;-85
2022/01/14 11:33:09;;;;;;;;;;;5.40;99.90;;;;;;4888824;29;19963;-85
2022/01/14 11:35:36;;;;;;;;;;;5.60;99.90;;;;;;4896220;29;19927;-85
2022/01/14 11:38:23;;;;;;;;;;;5.80;99.90;;;;;;4893518;29;19931;-85
2022/01/14 11:40:53;;;;;;;;;;;6.00;99.90;;;;;;4892977;29;20402;-85
2022/01/14 11:43:40;;;;;;;;;;;6.00;99.90;;;;;;4892863;29;19935;-85
2022/01/14 11:46:11;;;;;;;;;;;6.00;99.90;;;;;;4887402;29;19928;-83
2022/01/14 11:48:42;;;;;;;;;;;6.10;99.90;;;;;;4890095;29;19942;-84
2022/01/14 11:51:10;;;;;;;;;;;6.20;99.90;;;;;;4889090;29;19946;-84
2022/01/14 11:53:42;;;;;;;;;;;6.10;99.90;;;;;;4891061;29;19932;-84
2022/01/14 11:56:31;;;;;;;;;;;5.10;99.90;;;;;;4892673;29;20416;-85
2022/01/14 11:59:12;;;;;;;;;;;6.30;99.90;;;;;;4891096;29;19981;-85
2022/01/14 12:01:39;;;;;;;;;;;6.30;99.90;;;;;;4890450;29;20363;-85
2022/01/14 12:04:06;;;;;;;;;;;6.40;99.90;;;;;;4891999;29;19939;-84
2022/01/14 12:06:48;;;;;;;;;;;6.80;99.90;;;;;;4892269;29;19935;-84
2022/01/14 12:09:17;;;;;;;;;;;6.80;99.90;;;;;;4891450;29;19970;-88
2022/01/14 12:11:45;;;;;;;;;;;6.60;99.90;;;;;;4892977;29;19935;-85
2022/01/14 12:14:12;;;;;;;;;;;6.60;99.90;;;;;;4895984;29;20294;-85
2022/01/14 12:16:48;;;;;;;;;;;6.60;99.90;;;;;;4891352;29;19987;-84
2022/01/14 12:19:21;;;;;;;;;;;7.60;99.90;;;;;;4899527;29;20034;-86
2022/01/14 12:22:00;;;;;;;;;;;6.80;99.90;;;;;;4896289;29;20867;-86
2022/01/14 12:24:36;;;;;;;;;;;5.80;99.90;;;;;;4893266;29;19939;-86
2022/01/14 12:27:23;;;;;;;;;;;6.80;99.90;;;;;;4890675;29;19951;-85
2022/01/14 12:29:51;;;;;;;;;;;6.80;99.90;;;;;;4895131;29;20378;-85
2022/01/14 12:32:18;;;;;;;;;;;7.00;99.90;;;;;;4891423;29;20110;-86
2022/01/14 12:34:59;;;;;;;;;;;7.00;99.90;;;;;;4894404;29;19973;-87
2022/01/14 12:37:27;;;;;;;;;;;7.00;99.90;;;;;;4895425;29;20019;-85
2022/01/14 12:39:54;;;;;;;;;;;7.40;99.90;;;;;;4896393;29;19986;-85
2022/01/14 12:42:24;;;;;;;;;;;7.20;99.90;;;;;;4896353;29;20450;-84
2022/01/14 12:44:52;;;;;;;;;;;7.20;99.90;;;;;;4897947;29;19927;-85
2022/01/14 12:47:23;;;;;;;;;;;7.50;99.90;;;;;;4892120;29;19974;-86
2022/01/14 12:49:50;;;;;;;;;;;7.40;99.90;;;;;;4889609;29;19942;-86
2022/01/14 12:52:23;;;;;;;;;;;7.60;99.90;;;;;;4892626;29;21457;-85
2022/01/14 12:54:50;;;;;;;;;;;7.80;99.90;;;;;;4891152;29;21661;-84
2022/01/14 12:57:17;;;;;;;;;;;7.60;99.90;;;;;;4905860;29;20057;-86
2022/01/14 12:59:46;;;;;;;;;;;7.40;99.90;;;;;;4895464;29;19927;-86
2022/01/14 13:02:15;;;;;;;;;;;7.40;99.90;;;;;;4900585;29;19991;-85
2022/01/14 13:04:45;;;;;;;;;;;7.40;99.90;;;;;;4892381;29;20059;-86
2022/01/14 13:07:12;;;;;;;;;;;7.40;99.90;;;;;;4884114;29;19936;-84
2022/01/14 13:09:40;;;;;;;;;;;7.40;99.90;;;;;;4870702;29;19927;-84
2022/01/14 13:12:14;;;;;;;;;;;7.30;99.90;;;;;;4874056;29;20390;-85
2022/01/14 13:14:44;;;;;;;;;;;7.20;99.90;;;;;;4875565;29;19996;-85
2022/01/14 13:17:15;;;;;;;;;;;7.20;99.90;;;;;;4879127;29;20010;-85
2022/01/14 13:19:43;;;;;;;;;;;7.50;99.90;;;;;;4873753;29;19988;-86
2022/01/14 13:22:13;;;;;;;;;;;7.30;99.90;;;;;;4879993;29;19936;-87
2022/01/14 13:24:41;;;;;;;;;;;7.20;99.90;;;;;;4874508;29;19943;-86
2022/01/14 13:27:09;;;;;;;;;;;7.10;99.90;;;;;;4879388;29;20050;-84
2022/01/14 13:29:40;;;;;;;;;;;7.10;99.90;;;;;;4877553;29;20434;-84
2022/01/14 13:32:08;;;;;;;;;;;7.10;99.90;;;;;;4871730;29;19932;-85
2022/01/14 13:34:37;;;;;;;;;;;7.10;99.90;;;;;;4875815;29;19928;-87
2022/01/14 13:37:04;;;;;;;;;;;7.00;99.90;;;;;;4877006;29;19983;-86
2022/01/14 13:39:31;;;;;;;;;;;6.90;99.90;;;;;;4878282;29;19967;-86
2022/01/14 13:41:58;;;;;;;;;;;6.80;99.90;;;;;;4878596;29;19932;-86
2022/01/14 13:44:31;;;;;;;;;;;6.90;99.90;;;;;;4876282;29;20016;-85
2022/01/14 13:47:01;;;;;;;;;;;7.00;99.90;;;;;;4877712;29;20286;-85
2022/01/14 13:49:28;;;;;;;;;;;6.90;99.90;;;;;;4877980;29;20280;-85
2022/01/14 13:52:10;;;;;;;;;;;6.90;99.90;;;;;;4869595;29;20355;-87
2022/01/14 13:54:38;;;;;;;;;;;6.70;99.90;;;;;;4873354;29;19963;-87
2022/01/14 13:57:08;;;;;;;;;;;6.90;99.90;;;;;;4878676;29;20034;-86
2022/01/14 13:59:35;;;;;;;;;;;6.90;99.90;;;;;;4874619;29;19927;-85
2022/01/14 14:02:05;;;;;;;;;;;6.90;99.90;;;;;;4858882;29;19975;-88
2022/01/14 14:04:35;;;;;;;;;;;6.90;99.90;;;;;;4879234;29;19951;-87
2022/01/14 14:07:06;;;;;;;;;;;6.80;99.90;;;;;;4854850;29;19932;-86
2022/01/14 14:09:42;;;;;;;;;;;6.90;99.90;;;;;;4883612;29;19938;-86
2022/01/14 14:17:42;;;;;;;;;;;6.90;99.90;;;;;;4899406;29;20100;-85
2022/01/14 14:20:09;;;;;;;;;;;6.80;99.90;;;;;;4889730;29;20023;-84
2022/01/14 14:22:39;;;;;;;;;;;6.80;99.90;;;;;;4878135;29;19952;-85
2022/01/14 14:25:13;;;;;;;;;;;7.00;99.90;;;;;;4885457;29;19938;-86
2022/01/14 14:27:41;;;;;;;;;;;7.10;99.90;;;;;;4894301;29;19936;-84
2022/01/14 14:30:09;;;;;;;;;;;7.40;99.90;;;;;;4894255;29;19970;-84
2022/01/14 14:32:38;;;;;;;;;;;7.40;99.90;;;;;;4894787;29;19975;-84
2022/01/14 14:35:06;;;;;;;;;;;7.40;99.90;;;;;;4879244;29;19928;-85
2022/01/14 14:37:35;;;;;;;;;;;7.40;99.90;;;;;;4844311;29;19995;-83
2022/01/14 14:40:04;;;;;;;;;;;7.30;99.90;;;;;;4882477;29;20007;-86
2022/01/14 14:42:32;;;;;;;;;;;7.00;99.90;;;;;;4892050;29;20004;-84
2022/01/14 14:44:59;;;;;;;;;;;6.60;99.90;;;;;;4893894;29;20082;-84
2022/01/14 14:47:26;;;;;;;;;;;7.10;99.90;;;;;;4885865;29;19963;-86
2022/01/14 14:49:52;;;;;;;;;;;7.10;99.90;;;;;;4896015;29;20445;-85
2022/01/14 14:52:20;;;;;;;;;;;7.00;99.90;;;;;;4897981;29;20344;-85
2022/01/14 14:54:47;;;;;;;;;;;6.80;99.90;;;;;;4900347;29;19931;-85